Terminal Aerodrome Forecast
Issued by NWS Milwaukee/Sullivan, WI

Current Version | Previous Version | Text Only | Print | Product List | Glossary On
Versions: 1 2 3 4 5 6 7 8 9 10 11 12 13 14 15 16 17 18 19 20 21 22 23 24 25 26 27 28 29 30 31 32 33 34 35 36 37 38 39 40 41 42 43 44 45 46 47 48 49
000
FTUS43 KMKX 300724 AAA
TAFMKE
TAF AMD
KMKE 300724Z 3007/3112 18009KT P6SM VCTS SCT030 BKN050CB
     FM301000 20009KT 5SM BR VCTS SCT012 BKN035CB
     FM301200 20009KT 5SM BR VCSH SCT008 OVC025
     FM301500 22010KT 5SM -SHRA BR SCT008 OVC018
     FM301700 22010KT P6SM VCSH BKN025
     FM302100 24009KT P6SM BKN040
     FM310200 24003KT P6SM SCT040=

USA.gov is the U.S. government's official web portal to all federal, state and local government web resources and services.